Aérodrome :
LOGIN :

S'inscrire | Disclaimer

   EN    FR    IT 

 










Légende :    VFR   VFR Marginal   IFR   IFR Intensif   IFR Très Intensif
Visi : 
Plafond : 
>= 8 km
>= 3000ft
5 à 8 km
1000 à 3000 ft
1500m à 5 km
500 à 1000 ft
800 à 1500m
200 à 500 ft
< 800m
< 200 ft
Symboles :   Orages  Brouillard  Fortes neiges  Fortes précipitations  Vent > 20 kt
SIGMETs :   Divers  Orages  Givrage  Turbulence  Onde Orograph.  Cendres Volcan.







- Altitude de l'aérodrome : 1017 ft
- Voir les cartes d'approche


LFSL - Brive Souillac

DERNIER METAR :
  • 301030Z AUTO 16006KT 120V200 9999 NSC 21/07 Q1023 NOSIG

METARs EXPIRÉS :
  • 301000Z AUTO 15006KT 090V190 9999 NSC 19/07 Q1023 NOSIG
  • 300930Z AUTO 12006KT 090V160 9999 NSC 18/06 Q1023 NOSIG
  • 300900Z AUTO 14005KT 100V180 9999 NSC 17/06 Q1024 NOSIG
  • 300830Z AUTO 12006KT 9999 NSC 16/05 Q1024 NOSIG
  • 300800Z AUTO 12006KT 9999 NSC 15/05 Q1024 NOSIG

TAF TAF LFSL
Valide du 30 à 09h jusqu'au 30 à 18h UTC


300800Z 3009/3018 13006KT CAVOK
Pas de NOTAMs connus pour ce terrain.



MET'MAP, la Météo Aéronautique d'un coup d'oeil ! - Copyright ORBIFLY Décembre 2007 - Disclaimer

ORBIFLY MET'MAP TEAM :

Programmation & Développement : Alexandra Zaïnal
Conception & Développement : Baudouin d'Aumeries
Co-Programmation & Développement : Marc-Olivier Méhu
Soutien technique & logistique : Manuel Goepfert

Contact : metmap@orbifly.com




SOURCES & CREDITS :

   NOAA